sensor_id;sensor_type;location;lat;lon;timestamp;pressure;altitude;pressure_sealevel;temperature;humidity
46015;BME280;36844;51.898;-0.874;2023-07-02T00:01:02;99877.53;;;20.70;
46015;BME280;36844;51.898;-0.874;2023-07-02T00:03:27;99883.25;;;20.72;
46015;BME280;36844;51.898;-0.874;2023-07-02T00:05:53;99882.56;;;20.68;
46015;BME280;36844;51.898;-0.874;2023-07-02T00:08:21;99876.50;;;20.64;
46015;BME280;36844;51.898;-0.874;2023-07-02T00:10:46;99887.22;;;20.67;
46015;BME280;36844;51.898;-0.874;2023-07-02T00:13:11;99874.31;;;20.59;
46015;BME280;36844;51.898;-0.874;2023-07-02T00:15:37;99879.63;;;20.62;
46015;BME280;36844;51.898;-0.874;2023-07-02T00:18:02;99892.31;;;20.65;
46015;BME280;36844;51.898;-0.874;2023-07-02T00:20:27;99886.66;;;20.60;
46015;BME280;36844;51.898;-0.874;2023-07-02T00:22:53;99891.66;;;20.61;
46015;BME280;36844;51.898;-0.874;2023-07-02T00:25:19;99895.13;;;20.62;
46015;BME280;36844;51.898;-0.874;2023-07-02T00:27:45;99899.69;;;20.65;
46015;BME280;36844;51.898;-0.874;2023-07-02T00:30:11;99904.31;;;20.64;
46015;BME280;36844;51.898;-0.874;2023-07-02T00:32:36;99890.66;;;20.55;
46015;BME280;36844;51.898;-0.874;2023-07-02T00:35:01;99902.03;;;20.63;
46015;BME280;36844;51.898;-0.874;2023-07-02T00:37:27;99891.84;;;20.54;
46015;BME280;36844;51.898;-0.874;2023-07-02T00:39:52;99902.47;;;20.61;
46015;BME280;36844;51.898;-0.874;2023-07-02T00:42:17;99903.66;;;20.60;
46015;BME280;36844;51.898;-0.874;2023-07-02T00:44:43;99902.91;;;20.60;
46015;BME280;36844;51.898;-0.874;2023-07-02T00:47:09;99906.03;;;20.58;
46015;BME280;36844;51.898;-0.874;2023-07-02T00:49:34;99905.72;;;20.56;
46015;BME280;36844;51.898;-0.874;2023-07-02T00:52:00;99907.97;;;20.58;
46015;BME280;36844;51.898;-0.874;2023-07-02T00:54:28;99914.16;;;20.58;
46015;BME280;36844;51.898;-0.874;2023-07-02T00:56:54;99910.78;;;20.54;
46015;BME280;36844;51.898;-0.874;2023-07-02T00:59:19;99898.94;;;20.48;
46015;BME280;36844;51.898;-0.874;2023-07-02T01:01:44;99912.72;;;20.54;
46015;BME280;36844;51.898;-0.874;2023-07-02T01:04:17;99914.00;;;20.49;
46015;BME280;36844;51.898;-0.874;2023-07-02T01:06:42;99920.84;;;20.54;
46015;BME280;36844;51.898;-0.874;2023-07-02T01:09:09;99919.63;;;20.55;
46015;BME280;36844;51.898;-0.874;2023-07-02T01:11:37;99915.84;;;20.52;
46015;BME280;36844;51.898;-0.874;2023-07-02T01:14:13;99903.69;;;20.44;
46015;BME280;36844;51.898;-0.874;2023-07-02T01:16:41;99907.94;;;20.45;
46015;BME280;36844;51.898;-0.874;2023-07-02T01:19:13;99920.97;;;20.50;
46015;BME280;36844;51.898;-0.874;2023-07-02T01:21:44;99921.47;;;20.45;
46015;BME280;36844;51.898;-0.874;2023-07-02T01:24:10;99917.69;;;20.43;
46015;BME280;36844;51.898;-0.874;2023-07-02T01:26:36;99904.97;;;20.40;
46015;BME280;36844;51.898;-0.874;2023-07-02T01:31:39;99908.88;;;20.39;
46015;BME280;36844;51.898;-0.874;2023-07-02T01:34:05;99905.94;;;20.33;
46015;BME280;36844;51.898;-0.874;2023-07-02T01:36:32;99930.34;;;20.46;
46015;BME280;36844;51.898;-0.874;2023-07-02T01:38:58;99918.84;;;20.42;
46015;BME280;36844;51.898;-0.874;2023-07-02T01:41:24;99928.03;;;20.44;
46015;BME280;36844;51.898;-0.874;2023-07-02T01:43:49;99926.63;;;20.40;
46015;BME280;36844;51.898;-0.874;2023-07-02T01:46:14;99923.66;;;20.34;
46015;BME280;36844;51.898;-0.874;2023-07-02T01:48:40;99925.50;;;20.37;
46015;BME280;36844;51.898;-0.874;2023-07-02T01:51:05;99921.38;;;20.33;
46015;BME280;36844;51.898;-0.874;2023-07-02T01:53:30;99918.69;;;20.33;
46015;BME280;36844;51.898;-0.874;2023-07-02T01:55:56;99923.00;;;20.30;
46015;BME280;36844;51.898;-0.874;2023-07-02T01:58:21;99930.66;;;20.32;
46015;BME280;36844;51.898;-0.874;2023-07-02T02:00:47;99928.44;;;20.30;
46015;BME280;36844;51.898;-0.874;2023-07-02T02:03:12;99926.13;;;20.29;
46015;BME280;36844;51.898;-0.874;2023-07-02T02:05:37;99929.59;;;20.29;
46015;BME280;36844;51.898;-0.874;2023-07-02T02:08:03;99930.66;;;20.32;
46015;BME280;36844;51.898;-0.874;2023-07-02T02:10:28;99933.38;;;20.32;
46015;BME280;36844;51.898;-0.874;2023-07-02T02:12:54;99915.47;;;20.22;
46015;BME280;36844;51.898;-0.874;2023-07-02T02:15:19;99932.31;;;20.29;
46015;BME280;36844;51.898;-0.874;2023-07-02T02:17:44;99925.81;;;20.27;
46015;BME280;36844;51.898;-0.874;2023-07-02T02:20:10;99935.00;;;20.29;
46015;BME280;36844;51.898;-0.874;2023-07-02T02:22:36;99914.06;;;20.17;
46015;BME280;36844;51.898;-0.874;2023-07-02T02:25:01;99923.38;;;20.16;
46015;BME280;36844;51.898;-0.874;2023-07-02T02:27:28;99926.38;;;20.18;
46015;BME280;36844;51.898;-0.874;2023-07-02T02:29:54;99926.38;;;20.18;
46015;BME280;36844;51.898;-0.874;2023-07-02T02:32:19;99948.69;;;20.22;
46015;BME280;36844;51.898;-0.874;2023-07-02T02:34:46;99941.44;;;20.19;
46015;BME280;36844;51.898;-0.874;2023-07-02T02:37:12;99941.00;;;20.21;
46015;BME280;36844;51.898;-0.874;2023-07-02T02:39:37;99931.16;;;20.14;
46015;BME280;36844;51.898;-0.874;2023-07-02T02:42:03;99937.97;;;20.19;
46015;BME280;36844;51.898;-0.874;2023-07-02T02:44:28;99942.22;;;20.20;
46015;BME280;36844;51.898;-0.874;2023-07-02T02:46:54;99937.63;;;20.17;
46015;BME280;36844;51.898;-0.874;2023-07-02T02:49:20;99948.69;;;20.22;
46015;BME280;36844;51.898;-0.874;2023-07-02T02:51:45;99940.34;;;20.17;
46015;BME280;36844;51.898;-0.874;2023-07-02T02:54:10;99949.97;;;20.18;
46015;BME280;36844;51.898;-0.874;2023-07-02T02:56:36;99940.09;;;20.11;
46015;BME280;36844;51.898;-0.874;2023-07-02T02:59:01;99929.00;;;20.06;
46015;BME280;36844;51.898;-0.874;2023-07-02T03:01:27;99950.91;;;20.11;
46015;BME280;36844;51.898;-0.874;2023-07-02T03:03:57;99954.28;;;20.15;
46015;BME280;36844;51.898;-0.874;2023-07-02T03:06:22;99942.03;;;20.11;
46015;BME280;36844;51.898;-0.874;2023-07-02T03:08:47;99949.78;;;20.09;
46015;BME280;36844;51.898;-0.874;2023-07-02T03:11:13;99955.06;;;20.16;
46015;BME280;36844;51.898;-0.874;2023-07-02T03:13:38;99932.97;;;20.01;
46015;BME280;36844;51.898;-0.874;2023-07-02T03:16:04;99948.19;;;20.11;
46015;BME280;36844;51.898;-0.874;2023-07-02T03:18:29;99951.31;;;20.10;
46015;BME280;36844;51.898;-0.874;2023-07-02T03:20:54;99945.66;;;20.04;
46015;BME280;36844;51.898;-0.874;2023-07-02T03:23:20;99955.13;;;20.12;
46015;BME280;36844;51.898;-0.874;2023-07-02T03:25:45;99939.50;;;20.04;
46015;BME280;36844;51.898;-0.874;2023-07-02T03:28:10;99949.66;;;20.00;
46015;BME280;36844;51.898;-0.874;2023-07-02T03:30:36;99962.91;;;20.10;
46015;BME280;36844;51.898;-0.874;2023-07-02T03:33:01;99964.16;;;20.06;
46015;BME280;36844;51.898;-0.874;2023-07-02T03:35:26;99953.19;;;19.97;
46015;BME280;36844;51.898;-0.874;2023-07-02T03:37:52;99969.91;;;20.08;
46015;BME280;36844;51.898;-0.874;2023-07-02T03:40:17;99952.75;;;19.98;
46015;BME280;36844;51.898;-0.874;2023-07-02T03:42:43;99960.84;;;19.98;
46015;BME280;36844;51.898;-0.874;2023-07-02T03:45:08;99950.13;;;19.95;
46015;BME280;36844;51.898;-0.874;2023-07-02T03:47:34;99955.53;;;19.95;
46015;BME280;36844;51.898;-0.874;2023-07-02T03:49:59;99970.75;;;20.05;
46015;BME280;36844;51.898;-0.874;2023-07-02T03:52:24;99964.00;;;19.97;
46015;BME280;36844;51.898;-0.874;2023-07-02T03:54:50;99953.41;;;19.86;
46015;BME280;36844;51.898;-0.874;2023-07-02T04:10:10;99964.66;;;20.33;
46015;BME280;36844;51.898;-0.874;2023-07-02T04:12:35;99967.47;;;20.29;
46015;BME280;36844;51.898;-0.874;2023-07-02T04:15:01;99960.69;;;20.21;
46015;BME280;36844;51.898;-0.874;2023-07-02T04:17:28;99970.34;;;20.22;
46015;BME280;36844;51.898;-0.874;2023-07-02T04:19:54;99989.56;;;20.24;
46015;BME280;36844;51.898;-0.874;2023-07-02T04:22:20;99974.81;;;20.13;
46015;BME280;36844;51.898;-0.874;2023-07-02T04:24:46;99979.13;;;20.10;
46015;BME280;36844;51.898;-0.874;2023-07-02T04:27:14;99979.91;;;20.11;
46015;BME280;36844;51.898;-0.874;2023-07-02T04:29:43;99966.63;;;20.00;
46015;BME280;36844;51.898;-0.874;2023-07-02T04:32:08;99988.41;;;20.09;
46015;BME280;36844;51.898;-0.874;2023-07-02T04:34:33;99985.56;;;20.00;
46015;BME280;36844;51.898;-0.874;2023-07-02T04:37:04;99986.38;;;19.97;
46015;BME280;36844;51.898;-0.874;2023-07-02T04:39:29;99984.19;;;19.92;
46015;BME280;36844;51.898;-0.874;2023-07-02T04:41:55;99997.53;;;19.99;
46015;BME280;36844;51.898;-0.874;2023-07-02T04:44:20;99995.06;;;19.89;
46015;BME280;36844;51.898;-0.874;2023-07-02T04:46:57;99998.13;;;19.91;
46015;BME280;36844;51.898;-0.874;2023-07-02T04:49:22;99994.66;;;19.90;
46015;BME280;36844;51.898;-0.874;2023-07-02T04:51:48;100009.28;;;19.93;
46015;BME280;36844;51.898;-0.874;2023-07-02T04:54:13;100000.41;;;19.92;
46015;BME280;36844;51.898;-0.874;2023-07-02T04:56:38;99999.03;;;19.84;
46015;BME280;36844;51.898;-0.874;2023-07-02T04:59:03;99993.63;;;19.84;
46015;BME280;36844;51.898;-0.874;2023-07-02T05:01:29;99997.44;;;19.87;
46015;BME280;36844;51.898;-0.874;2023-07-02T05:03:54;99997.84;;;19.85;
46015;BME280;36844;51.898;-0.874;2023-07-02T05:06:20;99998.34;;;19.80;
46015;BME280;36844;51.898;-0.874;2023-07-02T05:08:45;100002.91;;;19.83;
46015;BME280;36844;51.898;-0.874;2023-07-02T05:11:10;100005.88;;;19.89;
46015;BME280;36844;51.898;-0.874;2023-07-02T05:13:35;100008.31;;;19.83;
46015;BME280;36844;51.898;-0.874;2023-07-02T05:16:01;100004.03;;;19.86;
46015;BME280;36844;51.898;-0.874;2023-07-02T05:18:26;99996.41;;;19.81;
46015;BME280;36844;51.898;-0.874;2023-07-02T05:20:51;100008.66;;;19.85;
46015;BME280;36844;51.898;-0.874;2023-07-02T05:23:17;100009.09;;;19.84;
46015;BME280;36844;51.898;-0.874;2023-07-02T05:25:42;99999.94;;;19.77;
46015;BME280;36844;51.898;-0.874;2023-07-02T05:28:07;100008.41;;;19.79;
46015;BME280;36844;51.898;-0.874;2023-07-02T05:30:32;99995.03;;;19.72;
46015;BME280;36844;51.898;-0.874;2023-07-02T05:32:58;100011.72;;;19.87;
46015;BME280;36844;51.898;-0.874;2023-07-02T05:35:23;99995.66;;;19.80;
46015;BME280;36844;51.898;-0.874;2023-07-02T05:37:48;100003.00;;;19.79;
46015;BME280;36844;51.898;-0.874;2023-07-02T05:40:14;100006.03;;;19.82;
46015;BME280;36844;51.898;-0.874;2023-07-02T05:42:39;100000.63;;;19.82;
46015;BME280;36844;51.898;-0.874;2023-07-02T05:45:05;99994.13;;;19.79;
46015;BME280;36844;51.898;-0.874;2023-07-02T05:47:30;100007.56;;;19.83;
46015;BME280;36844;51.898;-0.874;2023-07-02T05:49:55;100017.13;;;19.87;
46015;BME280;36844;51.898;-0.874;2023-07-02T05:52:21;100004.06;;;19.82;
46015;BME280;36844;51.898;-0.874;2023-07-02T05:54:47;100006.47;;;19.80;
46015;BME280;36844;51.898;-0.874;2023-07-02T05:57:13;100006.78;;;19.82;
46015;BME280;36844;51.898;-0.874;2023-07-02T05:59:38;100018.19;;;19.90;
46015;BME280;36844;51.898;-0.874;2023-07-02T06:02:03;100002.22;;;19.79;
46015;BME280;36844;51.898;-0.874;2023-07-02T06:04:29;100004.03;;;19.86;
46015;BME280;36844;51.898;-0.874;2023-07-02T06:06:54;100008.59;;;19.89;
46015;BME280;36844;51.898;-0.874;2023-07-02T06:09:20;100004.03;;;19.86;
46015;BME280;36844;51.898;-0.874;2023-07-02T06:11:45;100015.66;;;19.83;
46015;BME280;36844;51.898;-0.874;2023-07-02T06:14:10;100019.06;;;19.87;
46015;BME280;36844;51.898;-0.874;2023-07-02T06:16:35;100018.63;;;19.88;
46015;BME280;36844;51.898;-0.874;2023-07-02T06:19:01;100028.97;;;19.93;
46015;BME280;36844;51.898;-0.874;2023-07-02T06:21:26;100035.13;;;19.94;
46015;BME280;36844;51.898;-0.874;2023-07-02T06:23:55;100039.69;;;19.97;
46015;BME280;36844;51.898;-0.874;2023-07-02T06:26:21;100022.09;;;19.89;
46015;BME280;36844;51.898;-0.874;2023-07-02T06:28:47;100036.63;;;19.95;
46015;BME280;36844;51.898;-0.874;2023-07-02T06:31:12;100043.56;;;19.96;
46015;BME280;36844;51.898;-0.874;2023-07-02T06:33:41;100038.94;;;19.96;
46015;BME280;36844;51.898;-0.874;2023-07-02T06:36:07;100032.84;;;19.92;
46015;BME280;36844;51.898;-0.874;2023-07-02T06:38:33;100042.31;;;20.00;
46015;BME280;36844;51.898;-0.874;2023-07-02T06:40:58;100039.25;;;19.98;
46015;BME280;36844;51.898;-0.874;2023-07-02T06:43:23;100047.66;;;20.04;
46015;BME280;36844;51.898;-0.874;2023-07-02T06:45:48;100052.59;;;20.05;
46015;BME280;36844;51.898;-0.874;2023-07-02T06:48:14;100027.09;;;19.90;
46015;BME280;36844;51.898;-0.874;2023-07-02T06:50:44;100038.84;;;20.00;
46015;BME280;36844;51.898;-0.874;2023-07-02T06:53:09;100049.50;;;20.07;
46015;BME280;36844;51.898;-0.874;2023-07-02T06:55:35;100051.00;;;20.08;
46015;BME280;36844;51.898;-0.874;2023-07-02T06:58:00;100041.19;;;19.98;
46015;BME280;36844;51.898;-0.874;2023-07-02T07:00:25;100057.53;;;20.10;
46015;BME280;36844;51.898;-0.874;2023-07-02T07:02:50;100044.94;;;20.04;
46015;BME280;36844;51.898;-0.874;2023-07-02T07:05:16;100044.94;;;20.04;
46015;BME280;36844;51.898;-0.874;2023-07-02T07:07:41;100043.09;;;20.01;
46015;BME280;36844;51.898;-0.874;2023-07-02T07:10:07;100066.00;;;20.12;
46015;BME280;36844;51.898;-0.874;2023-07-02T07:12:39;100038.16;;;19.96;
46015;BME280;36844;51.898;-0.874;2023-07-02T07:15:04;100055.31;;;20.05;
46015;BME280;36844;51.898;-0.874;2023-07-02T07:17:30;100052.97;;;20.07;
46015;BME280;36844;51.898;-0.874;2023-07-02T07:19:55;100059.47;;;20.10;
46015;BME280;36844;51.898;-0.874;2023-07-02T07:22:20;100057.13;;;20.12;
46015;BME280;36844;51.898;-0.874;2023-07-02T07:24:46;100060.59;;;20.12;
46015;BME280;36844;51.898;-0.874;2023-07-02T07:27:11;100059.81;;;20.12;
46015;BME280;36844;51.898;-0.874;2023-07-02T07:29:36;100069.78;;;20.15;
46015;BME280;36844;51.898;-0.874;2023-07-02T07:32:02;100063.53;;;20.18;
46015;BME280;36844;51.898;-0.874;2023-07-02T07:34:27;100056.94;;;20.19;
46015;BME280;36844;51.898;-0.874;2023-07-02T07:36:53;100063.13;;;20.19;
46015;BME280;36844;51.898;-0.874;2023-07-02T07:39:18;100057.81;;;20.16;
46015;BME280;36844;51.898;-0.874;2023-07-02T07:41:46;100059.88;;;20.24;
46015;BME280;36844;51.898;-0.874;2023-07-02T07:44:13;100060.00;;;20.21;
46015;BME280;36844;51.898;-0.874;2023-07-02T07:46:38;100068.84;;;20.21;
46015;BME280;36844;51.898;-0.874;2023-07-02T07:49:03;100066.06;;;20.25;
46015;BME280;36844;51.898;-0.874;2023-07-02T07:51:29;100062.72;;;20.21;
46015;BME280;36844;51.898;-0.874;2023-07-02T07:53:54;100055.41;;;20.18;
46015;BME280;36844;51.898;-0.874;2023-07-02T07:56:19;100072.00;;;20.20;
46015;BME280;36844;51.898;-0.874;2023-07-02T07:58:45;100071.94;;;20.23;
46015;BME280;36844;51.898;-0.874;2023-07-02T08:01:10;100063.22;;;20.16;
46015;BME280;36844;51.898;-0.874;2023-07-02T08:03:37;100069.22;;;20.23;
46015;BME280;36844;51.898;-0.874;2023-07-02T08:06:02;100055.53;;;20.14;
46015;BME280;36844;51.898;-0.874;2023-07-02T08:08:28;100064.63;;;20.20;
46015;BME280;36844;51.898;-0.874;2023-07-02T08:10:53;100058.97;;;20.15;
46015;BME280;36844;51.898;-0.874;2023-07-02T08:13:18;100071.47;;;20.25;
46015;BME280;36844;51.898;-0.874;2023-07-02T08:15:43;100055.78;;;20.20;
46015;BME280;36844;51.898;-0.874;2023-07-02T08:18:09;100064.59;;;20.24;
46015;BME280;36844;51.898;-0.874;2023-07-02T08:20:36;100053.81;;;20.20;
46015;BME280;36844;51.898;-0.874;2023-07-02T08:23:02;100058.81;;;20.22;
46015;BME280;36844;51.898;-0.874;2023-07-02T08:25:27;100065.25;;;20.28;
46015;BME280;36844;51.898;-0.874;2023-07-02T08:27:52;100064.41;;;20.31;
46015;BME280;36844;51.898;-0.874;2023-07-02T08:30:17;100059.75;;;20.31;
46015;BME280;36844;51.898;-0.874;2023-07-02T08:32:43;100060.94;;;20.30;
46015;BME280;36844;51.898;-0.874;2023-07-02T08:35:08;100050.53;;;20.29;
46015;BME280;36844;51.898;-0.874;2023-07-02T08:37:33;100046.97;;;20.32;
46015;BME280;36844;51.898;-0.874;2023-07-02T08:39:59;100044.28;;;20.32;
46015;BME280;36844;51.898;-0.874;2023-07-02T08:42:24;100063.38;;;20.41;
46015;BME280;36844;51.898;-0.874;2023-07-02T08:44:55;100070.31;;;20.42;
46015;BME280;36844;51.898;-0.874;2023-07-02T08:47:22;100057.41;;;20.33;
46015;BME280;36844;51.898;-0.874;2023-07-02T08:49:48;100071.09;;;20.42;
46015;BME280;36844;51.898;-0.874;2023-07-02T08:52:13;100059.34;;;20.33;
46015;BME280;36844;51.898;-0.874;2023-07-02T08:54:39;100077.38;;;20.39;
46015;BME280;36844;51.898;-0.874;2023-07-02T08:57:04;100068.63;;;20.32;
46015;BME280;36844;51.898;-0.874;2023-07-02T08:59:30;100057.13;;;20.28;
46015;BME280;36844;51.898;-0.874;2023-07-02T09:01:56;100057.41;;;20.33;
46015;BME280;36844;51.898;-0.874;2023-07-02T09:04:25;100057.88;;;20.28;
46015;BME280;36844;51.898;-0.874;2023-07-02T09:07:11;100066.59;;;20.36;
46015;BME280;36844;51.898;-0.874;2023-07-02T09:09:46;100058.25;;;20.30;
46015;BME280;36844;51.898;-0.874;2023-07-02T09:15:00;100073.81;;;20.42;
46015;BME280;36844;51.898;-0.874;2023-07-02T09:17:31;100071.94;;;20.39;
46015;BME280;36844;51.898;-0.874;2023-07-02T09:19:58;100070.16;;;20.33;
46015;BME280;36844;51.898;-0.874;2023-07-02T09:22:25;100058.91;;;20.34;
46015;BME280;36844;51.898;-0.874;2023-07-02T09:24:56;100072.69;;;20.40;
46015;BME280;36844;51.898;-0.874;2023-07-02T09:27:41;100058.16;;;20.34;
46015;BME280;36844;51.898;-0.874;2023-07-02T09:30:07;100069.56;;;20.41;
46015;BME280;36844;51.898;-0.874;2023-07-02T09:32:33;100036.69;;;20.27;
46015;BME280;36844;51.898;-0.874;2023-07-02T09:34:58;100045.81;;;20.33;
46015;BME280;36844;51.898;-0.874;2023-07-02T09:37:24;100045.81;;;20.33;
46015;BME280;36844;51.898;-0.874;2023-07-02T09:39:53;100066.84;;;20.41;
46015;BME280;36844;51.898;-0.874;2023-07-02T09:42:21;100039.63;;;20.32;
46015;BME280;36844;51.898;-0.874;2023-07-02T09:44:47;100042.75;;;20.31;
46015;BME280;36844;51.898;-0.874;2023-07-02T09:47:15;100045.81;;;20.33;
46015;BME280;36844;51.898;-0.874;2023-07-02T09:49:48;100053.06;;;20.36;
46015;BME280;36844;51.898;-0.874;2023-07-02T09:52:14;100044.97;;;20.36;
46015;BME280;36844;51.898;-0.874;2023-07-02T09:54:41;100049.63;;;20.35;
46015;BME280;36844;51.898;-0.874;2023-07-02T09:57:07;100050.78;;;20.34;
46015;BME280;36844;51.898;-0.874;2023-07-02T09:59:32;100066.94;;;20.38;
46015;BME280;36844;51.898;-0.874;2023-07-02T10:01:58;100049.38;;;20.30;
46015;BME280;36844;51.898;-0.874;2023-07-02T10:04:23;100044.72;;;20.30;
46015;BME280;36844;51.898;-0.874;2023-07-02T10:06:54;100047.66;;;20.36;
46015;BME280;36844;51.898;-0.874;2023-07-02T10:09:21;100057.22;;;20.40;
46015;BME280;36844;51.898;-0.874;2023-07-02T10:11:47;100036.69;;;20.27;
46015;BME280;36844;51.898;-0.874;2023-07-02T10:14:12;100035.50;;;20.28;
46015;BME280;36844;51.898;-0.874;2023-07-02T10:16:52;100052.06;;;20.30;
46015;BME280;36844;51.898;-0.874;2023-07-02T10:19:17;100049.84;;;20.25;
46015;BME280;36844;51.898;-0.874;2023-07-02T10:21:43;100064.59;;;20.24;
46015;BME280;36844;51.898;-0.874;2023-07-02T10:24:12;100063.75;;;20.27;
46015;BME280;36844;51.898;-0.874;2023-07-02T10:26:38;100052.06;;;20.14;
46015;BME280;36844;51.898;-0.874;2023-07-02T10:29:03;100064.63;;;20.20;
46015;BME280;36844;51.898;-0.874;2023-07-02T10:31:29;100057.47;;;20.14;
46015;BME280;36844;51.898;-0.874;2023-07-02T10:33:54;100055.22;;;20.09;
46015;BME280;36844;51.898;-0.874;2023-07-02T10:36:24;100062.94;;;20.10;
46015;BME280;36844;51.898;-0.874;2023-07-02T10:38:50;100052.59;;;20.05;
46015;BME280;36844;51.898;-0.874;2023-07-02T10:41:26;100040.88;;;19.96;
46015;BME280;36844;51.898;-0.874;2023-07-02T10:43:52;100049.16;;;20.05;
46015;BME280;36844;51.898;-0.874;2023-07-02T10:46:19;100037.72;;;19.97;
46015;BME280;36844;51.898;-0.874;2023-07-02T10:48:52;100040.03;;;19.99;
46015;BME280;36844;51.898;-0.874;2023-07-02T10:51:17;100026.56;;;19.95;
46015;BME280;36844;51.898;-0.874;2023-07-02T10:53:43;100035.78;;;19.98;
46015;BME280;36844;51.898;-0.874;2023-07-02T10:56:15;100036.63;;;19.95;
46015;BME280;36844;51.898;-0.874;2023-07-02T10:58:44;100038.25;;;19.92;
46015;BME280;36844;51.898;-0.874;2023-07-02T11:01:09;100055.06;;;20.00;
46015;BME280;36844;51.898;-0.874;2023-07-02T11:03:34;100051.31;;;19.94;
46015;BME280;36844;51.898;-0.874;2023-07-02T11:06:00;100040.59;;;19.90;
46015;BME280;36844;51.898;-0.874;2023-07-02T11:08:34;100055.22;;;19.93;
46015;BME280;36844;51.898;-0.874;2023-07-02T11:11:07;100057.09;;;19.96;
46015;BME280;36844;51.898;-0.874;2023-07-02T11:13:32;100050.59;;;19.93;
46015;BME280;36844;51.898;-0.874;2023-07-02T11:15:58;100039.09;;;19.89;
46015;BME280;36844;51.898;-0.874;2023-07-02T11:18:23;100054.38;;;19.96;
46015;BME280;36844;51.898;-0.874;2023-07-02T11:20:48;100048.72;;;19.90;
46015;BME280;36844;51.898;-0.874;2023-07-02T11:23:21;100040.66;;;19.87;
46015;BME280;36844;51.898;-0.874;2023-07-02T11:26:00;100044.16;;;19.87;
46015;BME280;36844;51.898;-0.874;2023-07-02T11:28:27;100051.06;;;19.88;
46015;BME280;36844;51.898;-0.874;2023-07-02T11:30:53;100050.63;;;19.90;
46015;BME280;36844;51.898;-0.874;2023-07-02T11:33:18;100030.72;;;19.84;
46015;BME280;36844;51.898;-0.874;2023-07-02T11:35:44;100037.63;;;19.85;
46015;BME280;36844;51.898;-0.874;2023-07-02T11:38:09;100031.38;;;19.88;
46015;BME280;36844;51.898;-0.874;2023-07-02T11:40:38;100045.50;;;19.95;
46015;BME280;36844;51.898;-0.874;2023-07-02T11:43:03;100023.44;;;19.81;
46015;BME280;36844;51.898;-0.874;2023-07-02T11:45:29;100045.09;;;19.97;
46015;BME280;36844;51.898;-0.874;2023-07-02T11:47:54;100047.34;;;19.98;
46015;BME280;36844;51.898;-0.874;2023-07-02T11:50:20;100027.44;;;19.92;
46015;BME280;36844;51.898;-0.874;2023-07-02T11:52:45;100015.44;;;19.93;
46015;BME280;36844;51.898;-0.874;2023-07-02T11:55:10;100023.56;;;19.93;
46015;BME280;36844;51.898;-0.874;2023-07-02T11:57:36;100037.31;;;19.99;
46015;BME280;36844;51.898;-0.874;2023-07-02T12:00:02;100034.13;;;20.04;
46015;BME280;36844;51.898;-0.874;2023-07-02T12:02:27;100037.16;;;20.06;
46015;BME280;36844;51.898;-0.874;2023-07-02T12:04:53;100016.69;;;19.89;
46015;BME280;36844;51.898;-0.874;2023-07-02T12:07:18;100048.31;;;20.08;
46015;BME280;36844;51.898;-0.874;2023-07-02T12:09:43;100046.81;;;20.07;
46015;BME280;36844;51.898;-0.874;2023-07-02T12:12:10;100033.44;;;20.00;
46015;BME280;36844;51.898;-0.874;2023-07-02T12:14:35;100024.22;;;19.97;
46015;BME280;36844;51.898;-0.874;2023-07-02T12:17:02;100034.13;;;20.04;
46015;BME280;36844;51.898;-0.874;2023-07-02T12:19:27;100044.94;;;20.04;
46015;BME280;36844;51.898;-0.874;2023-07-02T12:21:52;100032.94;;;20.05;
46015;BME280;36844;51.898;-0.874;2023-07-02T12:24:18;100000.47;;;19.89;
46015;BME280;36844;51.898;-0.874;2023-07-02T12:26:43;100026.03;;;20.04;
46015;BME280;36844;51.898;-0.874;2023-07-02T12:29:08;100039.47;;;20.07;
46015;BME280;36844;51.898;-0.874;2023-07-02T12:31:34;100016.53;;;19.96;
46015;BME280;36844;51.898;-0.874;2023-07-02T12:33:59;100034.06;;;20.07;
46015;BME280;36844;51.898;-0.874;2023-07-02T12:36:24;100022.13;;;20.05;
46015;BME280;36844;51.898;-0.874;2023-07-02T12:38:50;100017.22;;;20.00;
46015;BME280;36844;51.898;-0.874;2023-07-02T12:41:15;100014.53;;;20.00;
46015;BME280;36844;51.898;-0.874;2023-07-02T12:43:40;100013.41;;;19.97;
46015;BME280;36844;51.898;-0.874;2023-07-02T12:46:06;100024.84;;;20.05;
46015;BME280;36844;51.898;-0.874;2023-07-02T12:48:31;100006.16;;;19.94;
46015;BME280;36844;51.898;-0.874;2023-07-02T12:50:57;100010.28;;;19.99;
46015;BME280;36844;51.898;-0.874;2023-07-02T12:53:24;100023.25;;;20.07;
46015;BME280;36844;51.898;-0.874;2023-07-02T12:55:50;100017.06;;;20.07;
46015;BME280;36844;51.898;-0.874;2023-07-02T12:58:15;100009.88;;;20.00;
46015;BME280;36844;51.898;-0.874;2023-07-02T13:00:41;99991.03;;;19.97;
46015;BME280;36844;51.898;-0.874;2023-07-02T13:03:10;100004.03;;;20.02;
46015;BME280;36844;51.898;-0.874;2023-07-02T13:05:35;100021.97;;;20.12;
46015;BME280;36844;51.898;-0.874;2023-07-02T13:08:01;100028.19;;;20.09;
46015;BME280;36844;51.898;-0.874;2023-07-02T13:10:26;100018.56;;;20.08;
46015;BME280;36844;51.898;-0.874;2023-07-02T13:12:51;100026.19;;;20.13;
46015;BME280;36844;51.898;-0.874;2023-07-02T13:15:17;100003.63;;;20.03;
46015;BME280;36844;51.898;-0.874;2023-07-02T13:17:42;100016.28;;;20.06;
46015;BME280;36844;51.898;-0.874;2023-07-02T13:20:09;100012.34;;;20.11;
46015;BME280;36844;51.898;-0.874;2023-07-02T13:22:34;100033.38;;;20.19;
46015;BME280;36844;51.898;-0.874;2023-07-02T13:24:59;100011.16;;;20.12;
46015;BME280;36844;51.898;-0.874;2023-07-02T13:27:25;100014.28;;;20.10;
46015;BME280;36844;51.898;-0.874;2023-07-02T13:29:50;100024.16;;;20.17;
46015;BME280;36844;51.898;-0.874;2023-07-02T13:32:15;100024.41;;;20.22;
46015;BME280;36844;51.898;-0.874;2023-07-02T13:34:41;100021.31;;;20.24;
46015;BME280;36844;51.898;-0.874;2023-07-02T13:37:08;100023.34;;;20.20;
46015;BME280;36844;51.898;-0.874;2023-07-02T13:39:33;100020.25;;;20.18;
46015;BME280;36844;51.898;-0.874;2023-07-02T13:41:58;100023.66;;;20.22;
46015;BME280;36844;51.898;-0.874;2023-07-02T13:44:24;100034.84;;;20.24;
46015;BME280;36844;51.898;-0.874;2023-07-02T13:46:49;100019.59;;;20.14;
46015;BME280;36844;51.898;-0.874;2023-07-02T13:49:15;100018.00;;;20.16;